Time;durP1;ratioP1;P1;durP2;ratioP2;P2;SDS_P1;SDS_P2;PMS_P1;PMS_P2;Temp;Humidity;BMP_temperature;BMP_pressure;BME280_temperature;BME280_humidity;BME280_pressure;Samples;Min_cycle;Max_cycle;Signal;HPM_P1;HPM_P2
2021/09/27 00:02:42;;;;;;;16.13;13.60;;;;;;;;;;4986020;28;20031;-80
2021/09/27 00:05:28;;;;;;;17.75;15.43;;;;;;;;;;4983985;28;20118;-82
2021/09/27 00:08:13;;;;;;;16.67;14.07;;;;;;;;;;4981405;28;20026;-81
2021/09/27 00:11:04;;;;;;;17.58;14.00;;;;;;;;;;4986974;28;20152;-81
2021/09/27 00:13:52;;;;;;;16.48;14.05;;;;;;;;;;4983329;28;20125;-81
2021/09/27 00:16:38;;;;;;;17.13;14.77;;;;;;;;;;4986318;28;20029;-79
2021/09/27 00:19:24;;;;;;;15.43;13.63;;;;;;;;;;4985725;28;20027;-79
2021/09/27 00:22:09;;;;;;;14.80;13.20;;;;;;;;;;4992185;28;20037;-80
2021/09/27 00:24:55;;;;;;;20.88;16.10;;;;;;;;;;4988650;28;20073;-79
2021/09/27 00:27:40;;;;;;;18.08;14.25;;;;;;;;;;4987696;28;20105;-80
2021/09/27 00:30:25;;;;;;;15.98;14.27;;;;;;;;;;4986671;28;20030;-81
2021/09/27 00:33:11;;;;;;;15.85;13.73;;;;;;;;;;4984533;28;20033;-80
2021/09/27 00:35:56;;;;;;;17.63;14.65;;;;;;;;;;4976366;28;20116;-80
2021/09/27 00:38:42;;;;;;;14.57;11.95;;;;;;;;;;4986110;28;20041;-80
2021/09/27 00:41:27;;;;;;;18.95;15.35;;;;;;;;;;4973561;28;20110;-79
2021/09/27 00:44:12;;;;;;;14.98;12.43;;;;;;;;;;4979848;28;20486;-80
2021/09/27 00:46:57;;;;;;;15.52;13.80;;;;;;;;;;4973469;28;20038;-80
2021/09/27 00:49:43;;;;;;;14.70;13.07;;;;;;;;;;4971195;28;20037;-80
2021/09/27 00:52:28;;;;;;;16.85;14.20;;;;;;;;;;4980290;28;20026;-80
2021/09/27 00:55:16;;;;;;;15.93;13.82;;;;;;;;;;4968703;28;20023;-81
2021/09/27 00:58:01;;;;;;;19.92;14.75;;;;;;;;;;4980754;28;20494;-81
2021/09/27 01:00:46;;;;;;;17.48;13.98;;;;;;;;;;4989978;28;20553;-81
2021/09/27 01:03:32;;;;;;;17.10;14.68;;;;;;;;;;4981133;28;20086;-81
2021/09/27 01:06:17;;;;;;;16.08;14.38;;;;;;;;;;4992790;28;20369;-81
2021/09/27 01:09:12;;;;;;;16.13;14.15;;;;;;;;;;4988133;28;20037;-81
2021/09/27 01:11:57;;;;;;;14.10;12.35;;;;;;;;;;4990550;28;20388;-81
2021/09/27 01:14:51;;;;;;;16.42;14.23;;;;;;;;;;4992934;28;20022;-80
2021/09/27 01:17:52;;;;;;;18.67;13.80;;;;;;;;;;4980518;28;20494;-81
2021/09/27 01:20:40;;;;;;;17.38;14.50;;;;;;;;;;4997417;28;20026;-81
2021/09/27 01:23:44;;;;;;;16.15;13.02;;;;;;;;;;4980589;28;20030;-81
2021/09/27 01:26:42;;;;;;;17.55;14.13;;;;;;;;;;4994497;28;20077;-81
2021/09/27 01:29:53;;;;;;;13.05;11.65;;;;;;;;;;4988810;28;20088;-80
2021/09/27 01:32:47;;;;;;;18.52;15.38;;;;;;;;;;4979911;28;20030;-79
2021/09/27 01:35:44;;;;;;;14.73;12.77;;;;;;;;;;4983201;28;20301;-80
2021/09/27 01:38:41;;;;;;;15.63;13.85;;;;;;;;;;4986745;28;20393;-80
2021/09/27 01:41:40;;;;;;;14.98;12.70;;;;;;;;;;4995829;28;20026;-81
2021/09/27 01:44:32;;;;;;;16.73;13.77;;;;;;;;;;4999445;28;20065;-80
2021/09/27 01:47:21;;;;;;;15.95;12.98;;;;;;;;;;4996299;28;20038;-80
2021/09/27 01:50:06;;;;;;;17.25;15.13;;;;;;;;;;4990589;28;20033;-79
2021/09/27 01:52:57;;;;;;;15.23;12.57;;;;;;;;;;4989692;28;20110;-80
2021/09/27 01:55:58;;;;;;;16.63;12.63;;;;;;;;;;4987227;28;20065;-80
2021/09/27 01:59:06;;;;;;;16.92;13.65;;;;;;;;;;4979906;28;20144;-80
2021/09/27 02:01:55;;;;;;;17.52;14.13;;;;;;;;;;4993483;28;20026;-81
2021/09/27 02:04:59;;;;;;;15.25;13.65;;;;;;;;;;5003458;28;20042;-81
2021/09/27 02:07:49;;;;;;;18.17;14.63;;;;;;;;;;4990473;28;20028;-81
2021/09/27 02:10:41;;;;;;;15.45;13.00;;;;;;;;;;4993494;28;20036;-81
2021/09/27 02:13:30;;;;;;;16.00;13.00;;;;;;;;;;4978273;28;20394;-81
2021/09/27 02:16:20;;;;;;;17.55;12.95;;;;;;;;;;4981725;28;20505;-80
2021/09/27 02:19:17;;;;;;;16.88;14.05;;;;;;;;;;4990700;28;20435;-80
2021/09/27 02:22:14;;;;;;;15.88;14.18;;;;;;;;;;5001479;28;20017;-80
2021/09/27 02:25:04;;;;;;;15.55;13.25;;;;;;;;;;4988704;28;20033;-80
2021/09/27 02:27:51;;;;;;;17.95;15.48;;;;;;;;;;4979835;28;20113;-80
2021/09/27 02:30:41;;;;;;;18.83;14.88;;;;;;;;;;4984481;28;20048;-81
2021/09/27 02:33:33;;;;;;;16.13;14.18;;;;;;;;;;4981911;28;20062;-80
2021/09/27 02:36:18;;;;;;;17.30;14.50;;;;;;;;;;4988049;28;20396;-80
2021/09/27 02:39:06;;;;;;;13.30;11.90;;;;;;;;;;4991367;28;20112;-81
2021/09/27 02:42:11;;;;;;;17.85;14.00;;;;;;;;;;5005187;28;20027;-81
2021/09/27 02:44:56;;;;;;;16.48;13.63;;;;;;;;;;4976628;28;20464;-81
2021/09/27 02:47:47;;;;;;;16.15;13.20;;;;;;;;;;4977548;28;20108;-81
2021/09/27 02:50:33;;;;;;;16.50;13.80;;;;;;;;;;4989137;28;20026;-80
2021/09/27 02:53:20;;;;;;;15.95;13.32;;;;;;;;;;4997538;28;20055;-80
2021/09/27 02:56:17;;;;;;;20.70;15.38;;;;;;;;;;4994171;28;20025;-80
2021/09/27 02:59:05;;;;;;;15.45;13.45;;;;;;;;;;4994396;28;20053;-80
2021/09/27 03:01:57;;;;;;;16.23;14.35;;;;;;;;;;4990931;28;20022;-80
2021/09/27 03:05:01;;;;;;;18.80;14.23;;;;;;;;;;4987825;28;20068;-80
2021/09/27 03:08:01;;;;;;;20.58;15.20;;;;;;;;;;4994082;28;20060;-80
2021/09/27 03:10:53;;;;;;;16.50;13.77;;;;;;;;;;4980779;28;20476;-80
2021/09/27 03:13:44;;;;;;;19.40;15.43;;;;;;;;;;4985220;28;20034;-81
2021/09/27 03:16:34;;;;;;;16.95;14.55;;;;;;;;;;4976110;28;20027;-80
2021/09/27 03:19:36;;;;;;;17.58;15.30;;;;;;;;;;4980564;28;20028;-80
2021/09/27 03:22:51;;;;;;;16.13;13.77;;;;;;;;;;4994138;28;20105;-80
2021/09/27 03:25:51;;;;;;;17.00;14.20;;;;;;;;;;4974770;28;20119;-80
2021/09/27 03:28:59;;;;;;;16.75;14.13;;;;;;;;;;4989410;28;20040;-80
2021/09/27 03:31:44;;;;;;;16.33;14.50;;;;;;;;;;4978623;28;20022;-81
2021/09/27 03:34:39;;;;;;;17.90;14.85;;;;;;;;;;4991552;28;20034;-81
2021/09/27 03:37:38;;;;;;;16.80;14.30;;;;;;;;;;4989411;28;20027;-81
2021/09/27 03:40:28;;;;;;;14.43;12.55;;;;;;;;;;4994017;28;20018;-81
2021/09/27 03:43:24;;;;;;;18.45;15.15;;;;;;;;;;4989776;28;20027;-82
2021/09/27 03:46:15;;;;;;;16.42;12.52;;;;;;;;;;4975618;28;20030;-79
2021/09/27 03:49:30;;;;;;;15.77;13.95;;;;;;;;;;4981502;28;20030;-79
2021/09/27 03:52:37;;;;;;;15.23;12.88;;;;;;;;;;4987023;28;20084;-79
2021/09/27 03:55:25;;;;;;;14.18;12.48;;;;;;;;;;4987123;28;20040;-81
2021/09/27 03:58:13;;;;;;;14.85;13.00;;;;;;;;;;4992045;28;20030;-81
2021/09/27 04:01:13;;;;;;;16.65;14.00;;;;;;;;;;4987562;28;20030;-81
2021/09/27 04:04:04;;;;;;;15.98;13.68;;;;;;;;;;4985289;28;20045;-80
2021/09/27 04:06:54;;;;;;;14.18;12.10;;;;;;;;;;4981144;28;20116;-79
2021/09/27 04:09:55;;;;;;;17.48;13.98;;;;;;;;;;4994411;28;20033;-79
2021/09/27 04:13:04;;;;;;;16.42;13.88;;;;;;;;;;4974836;28;20023;-80
2021/09/27 04:15:50;;;;;;;15.85;13.70;;;;;;;;;;4989098;28;20472;-80
2021/09/27 04:18:42;;;;;;;14.13;11.70;;;;;;;;;;4986338;28;20066;-80
2021/09/27 04:21:35;;;;;;;16.08;13.50;;;;;;;;;;4990808;28;20098;-79
2021/09/27 04:24:38;;;;;;;14.63;12.63;;;;;;;;;;4980967;28;20152;-80
2021/09/27 04:27:24;;;;;;;15.55;13.85;;;;;;;;;;4981021;28;20034;-80
2021/09/27 04:30:09;;;;;;;14.23;11.70;;;;;;;;;;4989842;28;20021;-80
2021/09/27 04:33:06;;;;;;;19.17;14.25;;;;;;;;;;4992623;28;20030;-80
2021/09/27 04:35:54;;;;;;;15.68;13.18;;;;;;;;;;4987043;28;20109;-81
2021/09/27 04:38:40;;;;;;;19.20;14.45;;;;;;;;;;4980955;28;20033;-80
2021/09/27 04:41:28;;;;;;;14.35;12.70;;;;;;;;;;4994258;28;20045;-80
2021/09/27 04:44:34;;;;;;;17.05;13.85;;;;;;;;;;4982308;28;20026;-80
2021/09/27 04:47:34;;;;;;;16.90;14.15;;;;;;;;;;4993125;28;20041;-80
2021/09/27 04:50:25;;;;;;;18.58;14.57;;;;;;;;;;4991501;28;20023;-80
2021/09/27 04:53:17;;;;;;;17.35;14.07;;;;;;;;;;4988410;28;20034;-80
2021/09/27 04:56:02;;;;;;;20.77;15.02;;;;;;;;;;4992542;28;20417;-80
2021/09/27 04:58:50;;;;;;;16.25;13.43;;;;;;;;;;4986613;28;20038;-80
2021/09/27 05:01:49;;;;;;;16.08;14.38;;;;;;;;;;4988097;28;20032;-80
2021/09/27 05:04:39;;;;;;;19.30;14.82;;;;;;;;;;4997102;28;20029;-80
2021/09/27 05:07:43;;;;;;;15.95;13.65;;;;;;;;;;4992222;28;20038;-80
2021/09/27 05:10:38;;;;;;;15.65;12.80;;;;;;;;;;4986532;28;20029;-81
2021/09/27 05:13:43;;;;;;;19.15;15.73;;;;;;;;;;4982441;28;20026;-81
2021/09/27 05:16:47;;;;;;;15.15;13.32;;;;;;;;;;4983088;28;20029;-79
2021/09/27 05:19:52;;;;;;;17.70;13.13;;;;;;;;;;4983151;28;20030;-79
2021/09/27 05:22:37;;;;;;;16.75;14.05;;;;;;;;;;4971481;28;20033;-81
2021/09/27 05:25:41;;;;;;;21.40;13.10;;;;;;;;;;4978486;28;20025;-82
2021/09/27 05:28:30;;;;;;;18.23;14.50;;;;;;;;;;4983532;28;20137;-79
2021/09/27 05:31:15;;;;;;;15.98;12.75;;;;;;;;;;4988775;28;20018;-79
2021/09/27 05:34:03;;;;;;;18.38;15.70;;;;;;;;;;5000684;28;20057;-79
2021/09/27 05:37:02;;;;;;;17.52;14.05;;;;;;;;;;4993794;28;20100;-79
2021/09/27 05:39:50;;;;;;;17.80;13.77;;;;;;;;;;4979080;28;20036;-79
2021/09/27 05:42:41;;;;;;;16.25;14.40;;;;;;;;;;4995533;28;20041;-80
2021/09/27 05:45:36;;;;;;;16.27;14.52;;;;;;;;;;5000390;28;20040;-80
2021/09/27 05:48:29;;;;;;;17.27;14.07;;;;;;;;;;4989472;28;20101;-79
2021/09/27 05:51:27;;;;;;;16.42;13.20;;;;;;;;;;4998454;28;20022;-79
2021/09/27 05:54:20;;;;;;;18.65;13.90;;;;;;;;;;4990759;28;20028;-80
2021/09/27 05:57:05;;;;;;;19.23;13.38;;;;;;;;;;4990591;28;20026;-80
2021/09/27 06:00:02;;;;;;;20.27;14.75;;;;;;;;;;4994375;28;20404;-79
2021/09/27 06:02:47;;;;;;;18.52;13.63;;;;;;;;;;4985122;28;20030;-79
2021/09/27 06:05:50;;;;;;;17.40;14.98;;;;;;;;;;4997762;28;20025;-79
2021/09/27 06:09:00;;;;;;;16.88;14.48;;;;;;;;;;4985450;28;20030;-79
2021/09/27 06:11:57;;;;;;;14.85;12.32;;;;;;;;;;4980047;28;20027;-79
2021/09/27 06:14:42;;;;;;;17.33;14.18;;;;;;;;;;4992038;28;20408;-79
2021/09/27 06:17:46;;;;;;;15.98;13.90;;;;;;;;;;4984206;28;20022;-80
2021/09/27 06:20:32;;;;;;;17.63;14.05;;;;;;;;;;4993332;28;20037;-79
2021/09/27 06:23:26;;;;;;;19.73;15.70;;;;;;;;;;4987947;28;20501;-79
2021/09/27 06:26:13;;;;;;;14.60;13.00;;;;;;;;;;4988412;28;20057;-78
2021/09/27 06:29:02;;;;;;;18.42;14.55;;;;;;;;;;4980614;28;20065;-79
2021/09/27 06:31:47;;;;;;;;;;;;;;;;;;4977564;28;20037;-79
2021/09/27 06:34:39;;;;;;;16.13;13.85;;;;;;;;;;4990244;28;19975;-79
2021/09/27 06:37:24;;;;;;;15.90;12.65;;;;;;;;;;4991953;28;20026;-79
2021/09/27 06:40:11;;;;;;;14.68;12.30;;;;;;;;;;5007841;28;20091;-79
2021/09/27 06:42:56;;;;;;;14.80;13.10;;;;;;;;;;4996866;28;20100;-79
2021/09/27 06:45:41;;;;;;;14.48;12.68;;;;;;;;;;4986178;28;20065;-80
2021/09/27 06:48:27;;;;;;;16.38;14.05;;;;;;;;;;4989474;28;20026;-80
2021/09/27 06:51:12;;;;;;;15.75;12.45;;;;;;;;;;4986625;28;20380;-79
2021/09/27 06:53:58;;;;;;;15.63;13.40;;;;;;;;;;4981344;28;20034;-79
2021/09/27 06:56:43;;;;;;;15.48;13.00;;;;;;;;;;4987223;28;20026;-79
2021/09/27 06:59:52;;;;;;;17.35;14.93;;;;;;;;;;4989544;28;20042;-79
2021/09/27 07:02:53;;;;;;;16.63;14.02;;;;;;;;;;4968157;28;20019;-80
2021/09/27 07:05:38;;;;;;;18.65;13.85;;;;;;;;;;4992040;28;20125;-81
2021/09/27 07:08:24;;;;;;;18.25;12.93;;;;;;;;;;4982317;28;20046;-82
2021/09/27 07:11:09;;;;;;;14.15;12.30;;;;;;;;;;4984186;28;20026;-80
2021/09/27 07:13:54;;;;;;;19.48;13.35;;;;;;;;;;4988432;28;20088;-80
2021/09/27 07:16:40;;;;;;;16.35;12.52;;;;;;;;;;4988818;28;20021;-81
2021/09/27 07:19:25;;;;;;;18.00;11.60;;;;;;;;;;4985937;28;20033;-81
2021/09/27 07:22:10;;;;;;;15.32;12.23;;;;;;;;;;5000264;28;20030;-80
2021/09/27 07:24:55;;;;;;;12.80;10.02;;;;;;;;;;4986404;28;20578;-81
2021/09/27 07:27:44;;;;;;;12.18;10.88;;;;;;;;;;4986202;28;20048;-81
2021/09/27 07:30:30;;;;;;;16.42;12.50;;;;;;;;;;4988179;28;20014;-80
2021/09/27 07:33:17;;;;;;;13.00;11.55;;;;;;;;;;4987087;28;20021;-80
2021/09/27 07:36:03;;;;;;;13.35;9.65;;;;;;;;;;4988982;28;20072;-80
2021/09/27 07:38:49;;;;;;;15.80;9.85;;;;;;;;;;4994327;28;20032;-80
2021/09/27 07:41:35;;;;;;;13.38;10.70;;;;;;;;;;4995827;28;20022;-76
2021/09/27 07:44:20;;;;;;;14.60;10.20;;;;;;;;;;4993532;28;20116;-76
2021/09/27 07:47:05;;;;;;;12.52;10.63;;;;;;;;;;4992747;28;20484;-77
2021/09/27 07:49:50;;;;;;;11.00;9.77;;;;;;;;;;4962946;28;20021;-77
2021/09/27 07:52:36;;;;;;;11.55;9.80;;;;;;;;;;4993418;28;20056;-76
2021/09/27 07:55:21;;;;;;;11.95;9.00;;;;;;;;;;4998709;28;20037;-76
2021/09/27 07:58:06;;;;;;;11.38;9.02;;;;;;;;;;4978689;28;20448;-76
2021/09/27 08:00:52;;;;;;;13.18;8.10;;;;;;;;;;5003778;28;20022;-76
2021/09/27 08:03:37;;;;;;;10.00;8.40;;;;;;;;;;4997789;28;20717;-75
2021/09/27 08:06:22;;;;;;;10.70;8.65;;;;;;;;;;5013975;28;20034;-75
2021/09/27 08:09:09;;;;;;;8.85;7.10;;;;;;;;;;4991241;28;20034;-77
2021/09/27 08:11:54;;;;;;;10.60;8.13;;;;;;;;;;4982126;28;20029;-77
2021/09/27 08:14:40;;;;;;;10.55;8.35;;;;;;;;;;4981816;28;20277;-77
2021/09/27 08:17:25;;;;;;;9.70;7.15;;;;;;;;;;4984343;28;20057;-78
2021/09/27 08:20:12;;;;;;;8.68;6.93;;;;;;;;;;4982311;28;20094;-77
2021/09/27 08:22:57;;;;;;;8.25;6.68;;;;;;;;;;4993488;28;20030;-77
2021/09/27 08:25:43;;;;;;;11.52;6.95;;;;;;;;;;4995903;28;20033;-77
2021/09/27 08:28:30;;;;;;;8.55;6.82;;;;;;;;;;4978728;28;20527;-77
2021/09/27 08:31:20;;;;;;;10.13;6.38;;;;;;;;;;4986187;28;20034;-77
2021/09/27 08:34:05;;;;;;;9.40;6.85;;;;;;;;;;4977064;28;20575;-77
2021/09/27 08:36:51;;;;;;;8.15;5.70;;;;;;;;;;5002740;28;20113;-77
2021/09/27 08:39:36;;;;;;;6.25;4.90;;;;;;;;;;4989381;28;20030;-77
2021/09/27 08:42:24;;;;;;;6.55;4.40;;;;;;;;;;4979775;28;20108;-77
2021/09/27 08:45:12;;;;;;;10.10;5.30;;;;;;;;;;4993960;28;20033;-77
2021/09/27 08:47:57;;;;;;;6.47;4.82;;;;;;;;;;4989463;28;20038;-77
2021/09/27 08:50:43;;;;;;;7.10;4.70;;;;;;;;;;4969787;28;20038;-76
2021/09/27 08:53:39;;;;;;;6.25;4.82;;;;;;;;;;4985796;28;20018;-76
2021/09/27 08:56:24;;;;;;;9.00;5.53;;;;;;;;;;4996470;28;20490;-76
2021/09/27 08:59:14;;;;;;;8.35;4.47;;;;;;;;;;4984028;28;20049;-76
2021/09/27 09:01:59;;;;;;;9.75;4.82;;;;;;;;;;4991482;28;20036;-76
2021/09/27 09:05:11;;;;;;;6.03;4.28;;;;;;;;;;4981753;28;20026;-76
2021/09/27 09:07:59;;;;;;;6.95;4.45;;;;;;;;;;4961419;28;20491;-75
2021/09/27 09:10:59;;;;;;;6.13;4.60;;;;;;;;;;4992241;28;20018;-76
2021/09/27 09:13:46;;;;;;;4.45;4.05;;;;;;;;;;4977280;28;20030;-76
2021/09/27 09:16:33;;;;;;;9.52;4.15;;;;;;;;;;4992807;28;20022;-75
2021/09/27 09:19:22;;;;;;;5.00;3.63;;;;;;;;;;4993389;28;20038;-76
2021/09/27 09:22:33;;;;;;;5.35;4.40;;;;;;;;;;4986705;28;20018;-77
2021/09/27 09:25:26;;;;;;;4.75;3.63;;;;;;;;;;4985718;28;20029;-76
2021/09/27 09:28:11;;;;;;;10.35;3.65;;;;;;;;;;4980582;28;20026;-78
2021/09/27 09:31:12;;;;;;;4.13;3.35;;;;;;;;;;4974213;28;20040;-77
2021/09/27 09:34:00;;;;;;;6.25;3.42;;;;;;;;;;4992362;28;20703;-76
2021/09/27 09:36:47;;;;;;;5.17;3.77;;;;;;;;;;4985748;28;20481;-79
2021/09/27 09:39:35;;;;;;;4.80;3.90;;;;;;;;;;4980314;28;20021;-77
2021/09/27 09:42:20;;;;;;;9.40;3.60;;;;;;;;;;4984255;28;20084;-77
2021/09/27 09:45:26;;;;;;;8.07;3.17;;;;;;;;;;4987818;28;20037;-77
2021/09/27 09:48:14;;;;;;;5.60;3.47;;;;;;;;;;4985511;28;20026;-79
2021/09/27 09:51:17;;;;;;;5.13;3.00;;;;;;;;;;4987153;28;20041;-77
2021/09/27 09:54:19;;;;;;;6.47;3.30;;;;;;;;;;4989176;28;20052;-77
2021/09/27 09:57:06;;;;;;;5.60;3.42;;;;;;;;;;4984252;28;20026;-77
2021/09/27 09:59:54;;;;;;;3.50;3.10;;;;;;;;;;4986561;28;20061;-79
2021/09/27 10:02:40;;;;;;;3.95;3.08;;;;;;;;;;4995558;28;20013;-76
2021/09/27 10:05:30;;;;;;;4.50;3.58;;;;;;;;;;4995728;28;20030;-77
2021/09/27 10:08:17;;;;;;;8.20;3.20;;;;;;;;;;4990276;28;20029;-79
2021/09/27 10:11:07;;;;;;;5.78;4.10;;;;;;;;;;4984728;28;20415;-77
2021/09/27 10:13:54;;;;;;;4.35;3.05;;;;;;;;;;4990745;28;20026;-79
2021/09/27 10:16:41;;;;;;;4.90;3.15;;;;;;;;;;4989477;28;20025;-78
2021/09/27 10:19:31;;;;;;;6.13;3.85;;;;;;;;;;4988193;28;20027;-78
2021/09/27 10:22:19;;;;;;;3.97;3.30;;;;;;;;;;4992431;28;20033;-78
2021/09/27 10:25:22;;;;;;;4.38;3.67;;;;;;;;;;4993841;28;20651;-79
2021/09/27 10:28:09;;;;;;;5.45;3.33;;;;;;;;;;4996024;28;20376;-77
2021/09/27 10:30:59;;;;;;;5.15;3.40;;;;;;;;;;4991724;28;20538;-79
2021/09/27 10:33:50;;;;;;;7.22;3.50;;;;;;;;;;4991060;28;20061;-78
2021/09/27 10:36:39;;;;;;;3.28;2.97;;;;;;;;;;4994031;28;20034;-79
2021/09/27 10:39:24;;;;;;;4.57;3.00;;;;;;;;;;4999376;28;20018;-77
2021/09/27 10:42:11;;;;;;;3.58;2.72;;;;;;;;;;4976904;28;20029;-78
2021/09/27 10:44:58;;;;;;;4.28;3.28;;;;;;;;;;4979233;28;20037;-82
2021/09/27 10:47:45;;;;;;;6.47;3.53;;;;;;;;;;5003572;28;20057;-81
2021/09/27 10:50:33;;;;;;;3.83;2.70;;;;;;;;;;4983621;28;20030;-79
2021/09/27 10:53:26;;;;;;;4.30;2.88;;;;;;;;;;4976705;28;20022;-80
2021/09/27 10:56:35;;;;;;;5.32;2.88;;;;;;;;;;4979590;28;20026;-79
2021/09/27 10:59:20;;;;;;;;;;;;;;;;;;4975228;28;20101;-79
2021/09/27 11:02:24;;;;;;;7.38;3.58;;;;;;;;;;4976834;28;20392;-79
2021/09/27 11:05:21;;;;;;;6.20;3.03;;;;;;;;;;4988817;28;20101;-79
2021/09/27 11:08:08;;;;;;;3.53;2.63;;;;;;;;;;4989123;28;20570;-80
2021/09/27 11:10:54;;;;;;;4.53;2.92;;;;;;;;;;4980618;28;20035;-79
2021/09/27 11:13:40;;;;;;;3.42;2.72;;;;;;;;;;4970112;28;20027;-80
2021/09/27 11:16:29;;;;;;;5.55;3.10;;;;;;;;;;4981568;28;20041;-81
2021/09/27 11:19:24;;;;;;;3.10;2.42;;;;;;;;;;4996206;28;20381;-80
2021/09/27 11:22:20;;;;;;;3.63;2.78;;;;;;;;;;4998238;28;20021;-78
2021/09/27 11:25:12;;;;;;;3.28;2.55;;;;;;;;;;4988586;28;20058;-78
2021/09/27 11:28:05;;;;;;;3.05;2.17;;;;;;;;;;4992808;28;20037;-80
2021/09/27 11:31:06;;;;;;;4.68;2.53;;;;;;;;;;4977592;28;20048;-80
2021/09/27 11:33:52;;;;;;;3.75;2.45;;;;;;;;;;4977782;28;20049;-80
2021/09/27 11:36:51;;;;;;;3.25;2.50;;;;;;;;;;4981080;28;20516;-79
2021/09/27 11:39:40;;;;;;;2.55;2.30;;;;;;;;;;4994720;28;20149;-79
2021/09/27 11:42:31;;;;;;;4.35;2.85;;;;;;;;;;4979431;28;20026;-80
2021/09/27 11:45:41;;;;;;;3.75;2.45;;;;;;;;;;4977422;28;20635;-79
2021/09/27 11:48:40;;;;;;;4.20;2.72;;;;;;;;;;4994775;28;20061;-79
2021/09/27 11:51:27;;;;;;;5.07;2.85;;;;;;;;;;4998681;28;20033;-79
2021/09/27 11:54:19;;;;;;;5.00;2.60;;;;;;;;;;4993820;28;20045;-81
2021/09/27 11:57:05;;;;;;;4.07;2.40;;;;;;;;;;4995755;28;20030;-78
2021/09/27 11:59:50;;;;;;;2.67;2.42;;;;;;;;;;4991602;28;20504;-79
2021/09/27 12:02:39;;;;;;;4.03;2.58;;;;;;;;;;5009797;28;20040;-80
2021/09/27 12:05:33;;;;;;;3.45;2.50;;;;;;;;;;4992322;28;20023;-79
2021/09/27 12:08:23;;;;;;;3.28;2.55;;;;;;;;;;5011356;28;20030;-80
2021/09/27 12:11:10;;;;;;;5.20;2.40;;;;;;;;;;4995119;28;20030;-80
2021/09/27 12:13:59;;;;;;;5.30;2.55;;;;;;;;;;4990511;28;20124;-80
2021/09/27 12:16:47;;;;;;;3.60;2.22;;;;;;;;;;4971228;28;20023;-78
2021/09/27 12:19:34;;;;;;;3.85;3.10;;;;;;;;;;4986525;28;20022;-81
2021/09/27 12:22:27;;;;;;;4.05;2.80;;;;;;;;;;4971591;28;20090;-79
2021/09/27 12:25:16;;;;;;;3.33;2.50;;;;;;;;;;4970827;28;20101;-80
2021/09/27 12:28:25;;;;;;;3.40;2.90;;;;;;;;;;4991055;28;20022;-80
2021/09/27 12:31:10;;;;;;;2.78;2.17;;;;;;;;;;4986683;28;20157;-79
2021/09/27 12:33:55;;;;;;;5.20;2.58;;;;;;;;;;4991183;28;20022;-79
2021/09/27 12:36:41;;;;;;;4.53;2.30;;;;;;;;;;4981058;28;20033;-79
2021/09/27 12:39:27;;;;;;;3.83;2.85;;;;;;;;;;4990335;28;20391;-80
2021/09/27 12:42:24;;;;;;;3.65;2.92;;;;;;;;;;4991238;28;20034;-79
2021/09/27 12:45:20;;;;;;;3.08;2.65;;;;;;;;;;4994228;28;20448;-79
2021/09/27 12:48:09;;;;;;;3.05;2.50;;;;;;;;;;4982352;28;20034;-79
2021/09/27 12:50:55;;;;;;;5.43;2.43;;;;;;;;;;4974517;28;20392;-79
2021/09/27 12:53:43;;;;;;;3.42;2.42;;;;;;;;;;4974844;28;20030;-79
2021/09/27 12:56:29;;;;;;;3.72;2.40;;;;;;;;;;4975078;28;20489;-78
2021/09/27 12:59:15;;;;;;;4.88;2.88;;;;;;;;;;4973471;28;20116;-80
2021/09/27 13:02:04;;;;;;;3.58;2.15;;;;;;;;;;4975074;28;20066;-80
2021/09/27 13:04:51;;;;;;;4.28;2.28;;;;;;;;;;4982446;28;20085;-79
2021/09/27 13:07:38;;;;;;;4.53;3.15;;;;;;;;;;4979673;28;20038;-80
2021/09/27 13:10:26;;;;;;;5.38;2.70;;;;;;;;;;4981029;28;20488;-79
2021/09/27 13:13:13;;;;;;;3.80;2.60;;;;;;;;;;4974179;28;20050;-78
2021/09/27 13:16:00;;;;;;;4.38;2.42;;;;;;;;;;4977038;28;20109;-78
2021/09/27 13:18:47;;;;;;;3.08;2.65;;;;;;;;;;4977011;28;20058;-77
2021/09/27 13:21:35;;;;;;;3.65;3.00;;;;;;;;;;4976705;28;20022;-79
2021/09/27 13:24:22;;;;;;;3.58;2.50;;;;;;;;;;4984159;28;20267;-79
2021/09/27 13:27:10;;;;;;;5.25;3.00;;;;;;;;;;4982603;28;20054;-79
2021/09/27 13:30:04;;;;;;;4.18;2.65;;;;;;;;;;4983327;28;20576;-79
2021/09/27 13:32:51;;;;;;;7.10;2.78;;;;;;;;;;4996708;28;20030;-80
2021/09/27 13:35:40;;;;;;;4.32;2.50;;;;;;;;;;4994435;28;20531;-81
2021/09/27 13:38:56;;;;;;;3.63;2.33;;;;;;;;;;4997106;28;20503;-81
2021/09/27 13:41:50;;;;;;;5.18;3.33;;;;;;;;;;4990482;28;20457;-88
2021/09/27 13:44:50;;;;;;;4.55;3.33;;;;;;;;;;4978849;28;20113;-83
2021/09/27 13:47:35;;;;;;;5.07;3.20;;;;;;;;;;4966486;28;20500;-80
2021/09/27 13:50:20;;;;;;;6.70;3.53;;;;;;;;;;5012229;28;20034;-80
2021/09/27 13:53:09;;;;;;;5.10;3.40;;;;;;;;;;4981525;28;20108;-81
2021/09/27 13:55:54;;;;;;;5.07;3.00;;;;;;;;;;4972142;28;20030;-80
2021/09/27 13:58:42;;;;;;;6.13;3.20;;;;;;;;;;4989925;28;20042;-80
2021/09/27 14:01:27;;;;;;;4.50;3.28;;;;;;;;;;4971993;28;20037;-79
2021/09/27 14:04:12;;;;;;;6.85;3.50;;;;;;;;;;4990925;28;20023;-79
2021/09/27 14:06:57;;;;;;;4.32;3.63;;;;;;;;;;4987875;28;20504;-79
2021/09/27 14:09:50;;;;;;;5.65;3.40;;;;;;;;;;4986449;28;20085;-79
2021/09/27 14:12:35;;;;;;;7.82;3.42;;;;;;;;;;4983130;28;20105;-79
2021/09/27 14:15:20;;;;;;;4.22;3.13;;;;;;;;;;4985616;28;20058;-81
2021/09/27 14:18:06;;;;;;;6.20;3.45;;;;;;;;;;4984235;28;20039;-79
2021/09/27 14:20:52;;;;;;;4.97;3.35;;;;;;;;;;4978932;28;20356;-79
2021/09/27 14:23:37;;;;;;;5.13;3.30;;;;;;;;;;4991439;28;20053;-80
2021/09/27 14:26:23;;;;;;;7.93;3.33;;;;;;;;;;4989782;28;20026;-79
2021/09/27 14:29:08;;;;;;;5.82;3.80;;;;;;;;;;4983242;28;20030;-79
2021/09/27 14:31:54;;;;;;;7.50;3.35;;;;;;;;;;4981236;28;20027;-79
2021/09/27 14:34:39;;;;;;;8.10;3.70;;;;;;;;;;4980521;28;20026;-79
2021/09/27 14:37:27;;;;;;;8.20;4.00;;;;;;;;;;4976845;28;20027;-78
2021/09/27 14:40:14;;;;;;;7.50;3.55;;;;;;;;;;4973711;28;20543;-79
2021/09/27 14:42:59;;;;;;;5.22;3.88;;;;;;;;;;4970337;28;20026;-78
2021/09/27 14:45:44;;;;;;;6.47;3.80;;;;;;;;;;4989332;28;20749;-78
2021/09/27 14:48:30;;;;;;;8.65;4.35;;;;;;;;;;4988262;28;20045;-79
2021/09/27 14:51:16;;;;;;;5.72;4.00;;;;;;;;;;4989272;28;20027;-80
2021/09/27 14:54:01;;;;;;;6.40;3.60;;;;;;;;;;4986628;28;20026;-79
2021/09/27 14:56:46;;;;;;;7.95;3.80;;;;;;;;;;4970892;28;20026;-79
2021/09/27 14:59:31;;;;;;;5.63;3.70;;;;;;;;;;4980266;28;20101;-79
2021/09/27 15:02:17;;;;;;;4.85;3.50;;;;;;;;;;4986660;28;20567;-78
2021/09/27 15:05:03;;;;;;;9.15;3.67;;;;;;;;;;4988762;28;20026;-78
2021/09/27 15:07:49;;;;;;;5.88;3.55;;;;;;;;;;4988855;28;20099;-78
2021/09/27 15:10:34;;;;;;;5.35;3.30;;;;;;;;;;4982648;28;20386;-79
2021/09/27 15:13:20;;;;;;;5.72;3.50;;;;;;;;;;4970339;28;20026;-78
2021/09/27 15:16:06;;;;;;;7.25;3.58;;;;;;;;;;4983874;28;20492;-78
2021/09/27 15:18:51;;;;;;;7.18;3.50;;;;;;;;;;4984356;28;20018;-79
2021/09/27 15:21:39;;;;;;;5.20;3.88;;;;;;;;;;4990806;28;20022;-79
2021/09/27 15:24:25;;;;;;;4.93;3.15;;;;;;;;;;4996004;28;20936;-80
2021/09/27 15:27:11;;;;;;;6.50;2.97;;;;;;;;;;4969855;28;20034;-80
2021/09/27 15:29:56;;;;;;;4.95;3.13;;;;;;;;;;4971817;28;20671;-79
2021/09/27 15:32:42;;;;;;;6.22;3.22;;;;;;;;;;4981891;28;20134;-79
2021/09/27 15:35:27;;;;;;;6.65;3.63;;;;;;;;;;4995025;28;20586;-79
2021/09/27 15:38:14;;;;;;;6.28;3.22;;;;;;;;;;4982917;28;20493;-80
2021/09/27 15:40:59;;;;;;;5.03;3.17;;;;;;;;;;4981659;28;20081;-80
2021/09/27 15:43:44;;;;;;;7.35;3.85;;;;;;;;;;4988358;28;20030;-81
2021/09/27 15:46:30;;;;;;;6.47;4.10;;;;;;;;;;4980770;28;20038;-79
2021/09/27 15:49:15;;;;;;;6.60;4.10;;;;;;;;;;4981730;28;20029;-79
2021/09/27 15:52:00;;;;;;;4.72;3.35;;;;;;;;;;4974852;28;20054;-78
2021/09/27 15:54:46;;;;;;;7.40;3.90;;;;;;;;;;4979493;28;20101;-79
2021/09/27 15:57:31;;;;;;;11.00;3.70;;;;;;;;;;4979410;28;20035;-78
2021/09/27 16:00:16;;;;;;;6.88;3.63;;;;;;;;;;4979016;28;20046;-79
2021/09/27 16:03:02;;;;;;;14.18;4.57;;;;;;;;;;4973906;28;20109;-79
2021/09/27 16:05:47;;;;;;;6.68;3.67;;;;;;;;;;4970603;28;20389;-77
2021/09/27 16:08:32;;;;;;;5.78;3.35;;;;;;;;;;4985908;28;20034;-77
2021/09/27 16:11:17;;;;;;;8.00;3.63;;;;;;;;;;4975979;28;20046;-78
2021/09/27 16:14:04;;;;;;;5.22;3.55;;;;;;;;;;4979636;28;20054;-78
2021/09/27 16:16:52;;;;;;;9.25;4.10;;;;;;;;;;4980997;28;20034;-78
2021/09/27 16:19:37;;;;;;;10.80;5.65;;;;;;;;;;4973272;28;20023;-78
2021/09/27 16:22:22;;;;;;;11.30;4.65;;;;;;;;;;4981713;28;20046;-78
2021/09/27 16:25:07;;;;;;;7.38;4.10;;;;;;;;;;4989363;28;20029;-80
2021/09/27 16:27:53;;;;;;;8.55;3.60;;;;;;;;;;4986501;28;20034;-79
2021/09/27 16:30:38;;;;;;;5.50;3.58;;;;;;;;;;4995971;28;20018;-80
2021/09/27 16:33:23;;;;;;;6.30;3.42;;;;;;;;;;4984424;28;20038;-80
2021/09/27 16:36:09;;;;;;;6.63;3.83;;;;;;;;;;4970283;28;20019;-78
2021/09/27 16:38:54;;;;;;;9.88;3.75;;;;;;;;;;4983522;28;20045;-79
2021/09/27 16:41:40;;;;;;;7.75;4.10;;;;;;;;;;4989685;28;20018;-80
2021/09/27 16:44:26;;;;;;;11.13;4.32;;;;;;;;;;4980982;28;20032;-79
2021/09/27 16:47:13;;;;;;;9.82;4.03;;;;;;;;;;4968311;28;20101;-78